^^
Grace C. Lehan Memorial Weather Station Historical Data
Daily Summary for May 2, 2021 Units:  Metric    English   Both
Daily Weekly Monthly Yearly
  High: Low: Average:
Temperature: 10.5 °C 0.8 °C 3.7 °C
Dew Point: 7.1 °C -1.1 °C 1.6 °C
Humidity: 97% 67.3% 87%
Wind Speed: 20.8km/h 0km/h 2.9km/h
Wind Gust: 43.5km/h - -
Wind- - NW
Pressure: 1018.5 hPa 1005 hPa -
Precipitation: 5.84 mm    
 
 
Tabular Data for May 2, 2021
Time Temperature Dew Point Pressure Wind Wind Speed Wind Gust Humidity Rainfall Rate (Hourly) solar
00:04 0.9 °C -0.1 °C 1017.8 hPa Calm     93% 1.78 mm 0 W/m2
00:09 0.9 °C -0.1 °C 1017.5 hPa Calm     93% 0.25 mm 0 W/m2
00:14 1 °C 0.1 °C 1016.8 hPa Calm     93.3% 0.51 mm 0 W/m2
00:19 1 °C 0.2 °C 1016.8 hPa Calm     94% 0.51 mm 0 W/m2
00:24 1 °C 0.1 °C 1016.8 hPa Calm     94% 0.76 mm 0 W/m2
00:29 1 °C 0.2 °C 1016.8 hPa Calm     94% 1.02 mm 0 W/m2
00:34 1 °C 0.2 °C 1016.5 hPa Calm     94% 1.02 mm 0 W/m2
00:39 1.1 °C 0.2 °C 1016.5 hPa Calm     94% 1.27 mm 0 W/m2
00:44 1.1 °C 0.2 °C 1016.5 hPa Calm     94% 1.27 mm 0 W/m2
00:49 1.1 °C 0.2 °C 1015.8 hPa Calm     94% 1.52 mm 0 W/m2
00:54 1.1 °C 0.2 °C 1015.8 hPa Calm     94% 1.52 mm 0 W/m2
00:59 1.1 °C 0.2 °C 1015.8 hPa Calm     94% 1.78 mm 0 W/m2
01:04 1.1 °C 0.2 °C 1015.8 hPa Calm     94% 1.78 mm 0 W/m2
01:09 1.1 °C 0.3 °C 1015.5 hPa Calm     94% 1.78 mm 0 W/m2
01:14 1.1 °C 0.3 °C 1015.1 hPa Calm     94% 2.03 mm 0 W/m2
01:19 1.1 °C 0.2 °C 1015.1 hPa Calm     94% 2.03 mm 0 W/m2
01:24 1.1 °C 0.3 °C 1015.1 hPa Calm     94% 2.29 mm 0 W/m2
01:29 1.1 °C 0.3 °C 1015.1 hPa Calm     94% 2.54 mm 0 W/m2
01:34 1.1 °C 0.3 °C 1015.1 hPa Calm     94% 2.54 mm 0 W/m2
01:39 1.1 °C 0.3 °C 1015.1 hPa Calm     94% 1.78 mm 0 W/m2
01:44 1.1 °C 0.3 °C 1014.8 hPa Calm     94% 1.78 mm 0 W/m2
01:49 1.1 °C 0.3 °C 1014.8 hPa Calm     94% 2.03 mm 0 W/m2
01:54 1.2 °C 0.3 °C 1014.4 hPa Calm     94% 2.03 mm 0 W/m2
01:59 1.2 °C 0.3 °C 1014.4 hPa Calm     94% 2.03 mm 0 W/m2
02:04 1.2 °C 0.3 °C 1014.4 hPa Calm     94% 2.03 mm 0 W/m2
02:09 1.2 °C 0.3 °C 1014.1 hPa Calm     94% 1.52 mm 0 W/m2
02:14 1.1 °C 0.3 °C 1013.8 hPa Calm     94% 1.52 mm 0 W/m2
02:19 1.1 °C 0.3 °C 1013.4 hPa Calm     94% 1.52 mm 0 W/m2
02:24 1.1 °C 0.3 °C 1013.4 hPa Calm     94% 1.52 mm 0 W/m2
02:29 1.2 °C 0.4 °C 1013.1 hPa Calm     95% 1.52 mm 0 W/m2
02:34 1.2 °C 0.4 °C 1013.1 hPa Calm     95% 1.52 mm 0 W/m2
02:39 1.2 °C 0.4 °C 1013.1 hPa Calm     95% 1.02 mm 0 W/m2
02:44 1.2 °C 0.4 °C 1012.8 hPa Calm     95% 1.02 mm 0 W/m2
02:49 1.2 °C 0.4 °C 1012.8 hPa Calm     95% 1.02 mm 0 W/m2
02:54 1.2 °C 0.4 °C 1012.4 hPa Calm     95% 1.02 mm 0 W/m2
02:59 1.2 °C 0.4 °C 1012.4 hPa Calm     95% 1.27 mm 0 W/m2
03:04 1.2 °C 0.5 °C 1012.1 hPa Calm     95% 1.27 mm 0 W/m2
03:09 1.2 °C 0.5 °C 1012.1 hPa Calm     95% 1.02 mm 0 W/m2
03:14 1.2 °C 0.5 °C 1011.7 hPa Calm     95% 1.02 mm 0 W/m2
03:19 1.2 °C 0.5 °C 1011.4 hPa Calm     95% 1.27 mm 0 W/m2
03:24 1.3 °C 0.6 °C 1011.1 hPa Calm     95% 1.27 mm 0 W/m2
03:29 1.3 °C 0.6 °C 1010.7 hPa Calm     95% 1.27 mm 0 W/m2
03:34 1.3 °C 0.6 °C 1010.7 hPa Calm     95% 1.27 mm 0 W/m2
03:39 1.3 °C 0.6 °C 1010.4 hPa Calm     95% 1.02 mm 0 W/m2
03:44 1.3 °C 0.6 °C 1010 hPa Calm     95% 1.27 mm 0 W/m2
03:49 1.3 °C 0.6 °C 1010 hPa Calm     95% 1.27 mm 0 W/m2
03:54 1.3 °C 0.6 °C 1009.7 hPa Calm     95% 1.52 mm 0 W/m2
03:59 1.3 °C 0.6 °C 1009.7 hPa Calm     95% 1.52 mm 0 W/m2
04:04 1.3 °C 0.6 °C 1009.4 hPa Calm     95% 1.78 mm 0 W/m2
04:09 1.3 °C 0.6 °C 1009.4 hPa Calm     95% 1.78 mm 0 W/m2
04:14 1.4 °C 0.7 °C 1009 hPa Calm     95% 1.78 mm 0 W/m2
04:19 1.4 °C 0.7 °C 1009 hPa Calm     95% 2.03 mm 0 W/m2
04:24 1.4 °C 0.7 °C 1009 hPa Calm     95% 2.03 mm 0 W/m2
04:29 1.4 °C 0.7 °C 1008.7 hPa Calm     95% 2.03 mm 0 W/m2
04:34 1.4 °C 0.7 °C 1008.4 hPa Calm     95% 2.03 mm 0 W/m2
04:39 1.4 °C 0.7 °C 1008 hPa Calm     95% 1.02 mm 0 W/m2
04:44 1.4 °C 0.7 °C 1008 hPa Calm     95% 1.27 mm 0 W/m2
04:49 1.4 °C 0.7 °C 1007.7 hPa Calm     95% 1.27 mm 0 W/m2
04:54 1.4 °C 0.7 °C 1007.3 hPa Calm     95% 1.27 mm 0 W/m2
04:59 1.4 °C 0.7 °C 1007.3 hPa Calm     95% 1.27 mm 0 W/m2
05:04 1.4 °C 0.7 °C 1007 hPa Calm     95% 1.27 mm 0 W/m2
05:09 1.4 °C 0.7 °C 1006.7 hPa Calm     95% 0.25 mm 0 W/m2
05:14 1.4 °C 0.7 °C 1006.7 hPa Calm     95% 0.25 mm 0 W/m2
05:19 1.5 °C 0.8 °C 1006.7 hPa Calm     95% 0.25 mm 0 W/m2
05:24 1.5 °C 0.8 °C 1006.3 hPa Calm     95% 0.25 mm 0 W/m2
05:29 1.5 °C 0.9 °C 1006.3 hPa Calm     95.5% 0.25 mm 0 W/m2
05:34 1.6 °C 1 °C 1006.3 hPa Calm     96% 0.51 mm 0 W/m2
05:39 1.6 °C 1.1 °C 1006.3 hPa Calm     96% 0.51 mm 0 W/m2
05:44 1.7 °C 1.1 °C 1006.3 hPa Calm     95.5% 0.51 mm 0 W/m2
05:49 1.7 °C 1 °C 1006.3 hPa Calm     95% 0.51 mm 0 W/m2
05:54 1.8 °C 1.1 °C 1006.7 hPa NNW 1.3 km/h 8 km/h 95% 0.51 mm 0 W/m2
05:59 1.8 °C 1.1 °C 1006.7 hPa NNW 1.8 km/h 8 km/h 95.3% 0.51 mm 0 W/m2
06:04 1.8 °C 1.2 °C 1006.3 hPa NNW 1 km/h 8 km/h 95.9% 0.51 mm 0 W/m2
06:09 1.8 °C 1.3 °C 1006 hPa NNW 3.4 km/h 9.7 km/h 96% 0.25 mm 0 W/m2
06:14 1.8 °C 1.3 °C 1006 hPa NNW 2.9 km/h 9.7 km/h 96% 0.25 mm 0 W/m2
06:19 1.9 °C 1.3 °C 1006 hPa NNW 0.5 km/h 9.7 km/h 96% 0.51 mm 0 W/m2
06:24 1.9 °C 1.3 °C 1005.6 hPa NNW 1.1 km/h 9.7 km/h 96% 0.51 mm 0 W/m2
06:29 1.9 °C 1.3 °C 1005.6 hPa NNW 1 km/h 9.7 km/h 96% 0.51 mm 0 W/m2
06:34 1.9 °C 1.4 °C 1005.3 hPa NNW 1.8 km/h 9.7 km/h 96% 0.51 mm 0 W/m2
06:39 1.9 °C 1.4 °C 1005.3 hPa NNW 1.3 km/h 9.7 km/h 96% 0.51 mm 0 W/m2
06:44 1.9 °C 1.4 °C 1005.3 hPa NNW 2.4 km/h 9.7 km/h 96% 0.51 mm 0 W/m2
06:49 1.9 °C 1.4 °C 1005.3 hPa NNW 1.8 km/h 9.7 km/h 96% 0.51 mm 0 W/m2
06:54 1.9 °C 1.4 °C 1005.6 hPa NNW 2.9 km/h 9.7 km/h 96% 0.51 mm 0 W/m2
06:59 1.9 °C 1.4 °C 1005.6 hPa NNW 1.8 km/h 12.9 km/h 96% 0.51 mm 0 W/m2
07:04 1.9 °C 1.4 °C 1005.6 hPa NW 1.4 km/h 12.9 km/h 96% 0.51 mm 0 W/m2
07:09 2 °C 1.4 °C 1005.6 hPa Calm   9.7 km/h 96% 0.25 mm 0 W/m2
07:14 2 °C 1.4 °C 1005.6 hPa NW 1.1 km/h 9.7 km/h 96% 0.25 mm 0 W/m2
07:19 2 °C 1.4 °C 1005.6 hPa NW 0.8 km/h 9.7 km/h 96% 0.25 mm 0 W/m2
07:24 2.1 °C 1.5 °C 1005.6 hPa NW 1.1 km/h 9.7 km/h 96% 0.25 mm 0 W/m2
07:29 2.1 °C 1.5 °C 1006 hPa NW 0.8 km/h 9.7 km/h 96% 0.25 mm 0 W/m2
07:34 2.1 °C 1.6 °C 1005.6 hPa Calm   9.7 km/h 96% 0.25 mm 0 W/m2
07:39 2.1 °C 1.6 °C 1006 hPa Calm   1.6 km/h 96% 0 mm 0 W/m2
07:44 2.2 °C 1.6 °C 1005.3 hPa Calm   1.6 km/h 96% 0 mm 0 W/m2
07:49 2.2 °C 1.6 °C 1006 hPa Calm   1.6 km/h 96% 0 mm 5 W/m2
07:54 2.2 °C 1.7 °C 1006 hPa Calm   1.6 km/h 96% 0 mm 5 W/m2
07:59 2.2 °C 1.7 °C 1006.3 hPa Calm   1.6 km/h 96% 0 mm 7 W/m2
08:00 2.3 °C 1.7 °C 1006 hPa Calm   1.6 km/h 96% 0 mm 7 W/m2
08:09 2.3 °C 1.7 °C 1006 hPa Calm     96% 0 mm 14 W/m2
08:14 2.3 °C 1.7 °C 1005.6 hPa Calm     96% 0 mm 14 W/m2
08:19 2.3 °C 1.7 °C 1005.6 hPa Calm     96% 0 mm 21 W/m2
08:24 2.3 °C 1.7 °C 1005.6 hPa Calm     96% 0 mm 26 W/m2
08:29 2.3 °C 1.7 °C 1005.6 hPa Calm     96% 0 mm 28 W/m2
08:34 2.3 °C 1.7 °C 1005.6 hPa Calm     96% 0 mm 26 W/m2
08:39 2.3 °C 1.8 °C 1005.6 hPa Calm     96% 0 mm 46 W/m2
08:44 2.4 °C 1.8 °C 1005.6 hPa Calm     96% 0 mm 53 W/m2
08:49 2.4 °C 1.8 °C 1005.6 hPa Calm     96% 0 mm 26 W/m2
08:54 2.4 °C 1.8 °C 1005.3 hPa NW 0.3 km/h 6.4 km/h 96% 0 mm 81 W/m2
08:59 2.4 °C 1.9 °C 1005.3 hPa NW 1 km/h 6.4 km/h 96% 0 mm 98 W/m2
09:04 2.5 °C 1.9 °C 1005 hPa WNW 0.2 km/h 6.4 km/h 96% 0 mm 121 W/m2
09:09 2.6 °C 2 °C 1005 hPa WNW 0.8 km/h 6.4 km/h 96% 0 mm 121 W/m2
09:14 2.7 °C 2.1 °C 1005.3 hPa WNW 0.3 km/h 6.4 km/h 96% 0 mm 146 W/m2
09:19 2.8 °C 2.2 °C 1005.3 hPa Calm   6.4 km/h 96% 0 mm 111 W/m2
09:24 2.8 °C 2.3 °C 1005.3 hPa WNW 0.2 km/h 6.4 km/h 96% 0 mm 69 W/m2
09:29 2.9 °C 2.3 °C 1005.3 hPa Calm   6.4 km/h 96% 0 mm 86 W/m2
09:34 3 °C 2.4 °C 1005.3 hPa Calm   6.4 km/h 96% 0 mm 100 W/m2
09:39 3.2 °C 2.6 °C 1005.3 hPa Calm     96% 0 mm 91 W/m2
09:44 3.3 °C 2.7 °C 1005.3 hPa Calm     96% 0 mm 74 W/m2
09:49 3.3 °C 2.8 °C 1005.3 hPa Calm     96% 0 mm 88 W/m2
09:54 3.3 °C 2.8 °C 1005.3 hPa Calm     96% 0 mm 91 W/m2
09:59 3.3 °C 2.8 °C 1005.3 hPa Calm     96% 0 mm 77 W/m2
10:04 3.4 °C 2.8 °C 1005.3 hPa Calm     96% 0 mm 97 W/m2
10:09 3.5 °C 2.9 °C 1005.3 hPa Calm     96% 0 mm 118 W/m2
10:14 3.7 °C 3.1 °C 1005 hPa Calm     96% 0 mm 109 W/m2
10:19 3.8 °C 3.2 °C 1005 hPa Calm     96% 0 mm 295 W/m2
10:24 4.1 °C 3.5 °C 1005.3 hPa Calm     96.4% 0 mm 404 W/m2
10:29 4.4 °C 4.1 °C 1005.3 hPa Calm     97% 0 mm 404 W/m2
10:34 4.8 °C 4.3 °C 1005.6 hPa WNW 0.5 km/h 4.8 km/h 97% 0 mm 141 W/m2
10:39 4.9 °C 4.5 °C 1005.6 hPa Calm   4.8 km/h 97% 0 mm 121 W/m2
10:44 5.1 °C 4.6 °C 1006 hPa WNW 0.2 km/h 4.8 km/h 97% 0 mm 144 W/m2
10:49 5.2 °C 4.8 °C 1005.6 hPa WNW 1.6 km/h 8 km/h 97% 0 mm 149 W/m2
10:54 5.4 °C 4.9 °C 1005.6 hPa WNW 1 km/h 8 km/h 97% 0 mm 139 W/m2
10:59 5.7 °C 5.3 °C 1005.6 hPa WNW 1.4 km/h 8 km/h 97% 0 mm 218 W/m2
11:04 6.2 °C 5.7 °C 1005.6 hPa WNW 1 km/h 6.4 km/h 97% 0 mm 223 W/m2
11:09 6.6 °C 6.1 °C 1005.3 hPa WNW 0.8 km/h 6.4 km/h 97% 0 mm 163 W/m2
11:14 6.9 °C 6.5 °C 1005.6 hPa WNW 0.8 km/h 6.4 km/h 97% 0 mm 202 W/m2
11:19 7.1 °C 6.6 °C 1005.6 hPa WNW 0.5 km/h 6.4 km/h 97% 0 mm 83 W/m2
11:24 7.1 °C 6.7 °C 1005.6 hPa Calm   6.4 km/h 97% 0 mm 65 W/m2
11:29 7.2 °C 6.7 °C 1005.6 hPa Calm   6.4 km/h 97% 0 mm 137 W/m2
11:34 7.3 °C 6.8 °C 1005.6 hPa Calm   6.4 km/h 96.6% 0 mm 139 W/m2
11:39 7.4 °C 6.8 °C 1005.6 hPa Calm     96% 0 mm 114 W/m2
11:44 7.4 °C 6.8 °C 1005.6 hPa Calm     95.4% 0 mm 141 W/m2
11:49 7.4 °C 6.6 °C 1005.3 hPa Calm     94.4% 0 mm 141 W/m2
11:54 7.5 °C 6.5 °C 1005.6 hPa Calm     93.4% 0 mm 116 W/m2
11:59 7.7 °C 6.7 °C 1005.6 hPa Calm   1.6 km/h 93.2% 0 mm 47 W/m2
12:04 8.1 °C 6.8 °C 1005.3 hPa Calm     92% 0 mm 417 W/m2
12:09 8.2 °C 6.9 °C 1005.3 hPa WNW 1.6 km/h 8 km/h 91.7% 0 mm 424 W/m2
12:14 8.4 °C 7 °C 1005.3 hPa WNW 6.8 km/h 22.5 km/h 90.7% 0 mm 385 W/m2
12:19 8.7 °C 6.8 °C 1005.3 hPa NW 7.1 km/h 25.7 km/h 88.4% 0 mm 431 W/m2
12:24 8.9 °C 6.8 °C 1005.6 hPa WNW 6.1 km/h 25.7 km/h 87% 0 mm 348 W/m2
12:29 9.1 °C 7.1 °C 1005.6 hPa NW 9.2 km/h 25.7 km/h 87.3% 0 mm 100 W/m2
12:34 9.2 °C 6.7 °C 1005.6 hPa WNW 9.5 km/h 25.7 km/h 84.1% 0 mm 81 W/m2
12:39 9.3 °C 6.5 °C 1005.6 hPa West 13.2 km/h 22.5 km/h 82.8% 0 mm 364 W/m2
12:44 9.4 °C 6.4 °C 1005.3 hPa WNW 10 km/h 22.5 km/h 82% 0 mm 364 W/m2
12:49 9.6 °C 6.7 °C 1005.6 hPa WNW 6 km/h 22.5 km/h 81.7% 0 mm 519 W/m2
12:54 9.9 °C 6.7 °C 1005.6 hPa WNW 11.1 km/h 30.6 km/h 80.3% 0 mm 466 W/m2
12:59 10.2 °C 6.3 °C 1006 hPa WNW 15 km/h 40.2 km/h 77% 0 mm 343 W/m2
13:04 10.3 °C 6.1 °C 1006 hPa WNW 14 km/h 40.2 km/h 75.1% 0 mm 288 W/m2
13:09 10.4 °C 6.4 °C 1006 hPa WNW 6.1 km/h 33.8 km/h 75.8% 0 mm 274 W/m2
13:14 10.5 °C 6.1 °C 1006.3 hPa WNW 17.5 km/h 43.5 km/h 74.4% 0 mm 114 W/m2
13:19 10.2 °C 5.4 °C 1006.3 hPa WNW 16.4 km/h 43.5 km/h 72.1% 0 mm 98 W/m2
13:24 9.8 °C 5.4 °C 1006.7 hPa NW 7.1 km/h 43.5 km/h 73.8% 0 mm 139 W/m2
13:29 9.6 °C 5.1 °C 1006.7 hPa NW 13.7 km/h 43.5 km/h 73.4% 0 mm 139 W/m2
13:34 9.4 °C 4.8 °C 1006.7 hPa NW 8.7 km/h 43.5 km/h 73.1% 0 mm 366 W/m2
13:39 9.3 °C 4.8 °C 1007 hPa WNW 13.7 km/h 32.2 km/h 73.3% 0 mm 149 W/m2
13:44 9.3 °C 4.8 °C 1007 hPa NW 9.2 km/h 32.2 km/h 73.1% 0 mm 274 W/m2
13:49 9.4 °C 4.6 °C 1007.3 hPa NW 13.2 km/h 32.2 km/h 72.2% 0 mm 135 W/m2
13:54 9.2 °C 4.2 °C 1007.3 hPa NW 17.2 km/h 37 km/h 71% 0 mm 186 W/m2
13:59 8.9 °C 4.1 °C 1007.7 hPa NW 12.9 km/h 37 km/h 71.5% 0 mm 181 W/m2
14:04 8.8 °C 3.9 °C 1008 hPa NW 12.2 km/h 37 km/h 71.7% 0 mm 107 W/m2
14:09 8.7 °C 3.9 °C 1008.4 hPa NW 16.4 km/h 33.8 km/h 71.8% 0 mm 348 W/m2
14:14 8.7 °C 3.8 °C 1008.4 hPa NW 12.1 km/h 33.8 km/h 71.3% 0 mm 336 W/m2
14:19 8.7 °C 3.7 °C 1008.7 hPa NW 11.6 km/h 33.8 km/h 71% 0 mm 171 W/m2
14:24 8.6 °C 3.7 °C 1008.7 hPa NW 13 km/h 33.8 km/h 71% 0 mm 162 W/m2
14:29 8.6 °C 3.7 °C 1009 hPa NW 8.7 km/h 33.8 km/h 71.2% 0 mm 144 W/m2
14:34 8.6 °C 3.6 °C 1009 hPa NW 16.1 km/h 33.8 km/h 70.4% 0 mm 195 W/m2
14:39 8.6 °C 3.2 °C 1009 hPa NW 11.9 km/h 33.8 km/h 69.1% 0 mm 199 W/m2
14:44 8.5 °C 3 °C 1009.4 hPa NW 16.9 km/h 38.6 km/h 68.4% 0 mm 67 W/m2
14:49 8.3 °C 2.8 °C 1009.7 hPa NW 9.2 km/h 38.6 km/h 68% 0 mm 97 W/m2
14:54 8.2 °C 2.7 °C 1009.7 hPa NW 7.6 km/h 38.6 km/h 68.2% 0 mm 100 W/m2
14:59 8.2 °C 2.8 °C 1010 hPa WNW 10.9 km/h 38.6 km/h 69% 0 mm 77 W/m2
15:04 8.1 °C 2.4 °C 1010 hPa NW 17.2 km/h 38.6 km/h 67.5% 0 mm 77 W/m2
15:09 7.9 °C 2.2 °C 1010 hPa NW 14.2 km/h 37 km/h 67.3% 0 mm 84 W/m2
15:14 7.8 °C 2.2 °C 1010.4 hPa NW 11.3 km/h 37 km/h 67.6% 0 mm 84 W/m2
15:19 7.7 °C 2.4 °C 1010.4 hPa NW 7.1 km/h 37 km/h 68.9% 0 mm 70 W/m2
15:24 7.7 °C 2.4 °C 1010.7 hPa NW 8 km/h 37 km/h 69.4% 0 mm 51 W/m2
15:29 7.6 °C 2.2 °C 1011.1 hPa NW 9 km/h 37 km/h 68.5% 0 mm 44 W/m2
15:34 7.4 °C 1.9 °C 1011.1 hPa NW 9.7 km/h 37 km/h 68.2% 0 mm 33 W/m2
15:39 7.3 °C 1.8 °C 1011.1 hPa NW 9.7 km/h 22.5 km/h 68% 0 mm 26 W/m2
15:44 7.1 °C 1.7 °C 1011.1 hPa NW 11.6 km/h 25.7 km/h 68.5% 0 mm 18 W/m2
15:49 6.8 °C 1.6 °C 1011.4 hPa NW 17.1 km/h 32.2 km/h 69% 0 mm 16 W/m2
15:54 6.7 °C 1.4 °C 1011.4 hPa NW 13.4 km/h 32.2 km/h 69% 0 mm 14 W/m2
15:59 6.6 °C 1.4 °C 1011.4 hPa NW 11.4 km/h 32.2 km/h 69.9% 0 mm 14 W/m2
16:00 6.5 °C 1.4 °C 1011.4 hPa NW 1.6 km/h 32.2 km/h 70% 0 mm 12 W/m2
16:09 6.3 °C 1.2 °C 1011.7 hPa NW 13.7 km/h 30.6 km/h 70% 0 mm 11 W/m2
16:14 6.2 °C 1.2 °C 1011.7 hPa NW 10.9 km/h 30.6 km/h 70% 0 mm 9 W/m2
16:19 6.1 °C 1.2 °C 1011.7 hPa NW 13.5 km/h 30.6 km/h 70.9% 0 mm 5 W/m2
16:24 6 °C 1.1 °C 1011.7 hPa NW 17.2 km/h 30.6 km/h 71% 0 mm 0 W/m2
16:29 5.9 °C 1.1 °C 1011.7 hPa NW 20.8 km/h 35.4 km/h 71% 0 mm 0 W/m2
16:34 5.8 °C 0.9 °C 1011.7 hPa NW 15 km/h 35.4 km/h 71% 0 mm 0 W/m2
16:39 5.7 °C 1 °C 1012.1 hPa WNW 9.2 km/h 32.2 km/h 71.5% 0 mm 0 W/m2
16:44 5.7 °C 0.9 °C 1012.4 hPa NW 12.4 km/h 32.2 km/h 71.8% 0 mm 0 W/m2
16:49 5.6 °C 1 °C 1012.4 hPa WNW 6.3 km/h 32.2 km/h 72.2% 0 mm 0 W/m2
16:54 5.5 °C 1 °C 1012.4 hPa WNW 8 km/h 32.2 km/h 72.8% 0 mm 0 W/m2
16:59 5.4 °C 0.9 °C 1012.4 hPa WNW 10.9 km/h 32.2 km/h 72.9% 0 mm 0 W/m2
17:04 5.3 °C 0.8 °C 1012.8 hPa WNW 10.9 km/h 32.2 km/h 73% 0 mm 0 W/m2
17:09 5.2 °C 0.8 °C 1013.1 hPa NW 6.8 km/h 22.5 km/h 73.3% 0 mm 0 W/m2
17:14 5.1 °C 0.8 °C 1013.1 hPa WNW 7.2 km/h 22.5 km/h 74% 0 mm 0 W/m2
17:19 5 °C 0.8 °C 1013.1 hPa WNW 11.7 km/h 22.5 km/h 74% 0 mm 0 W/m2
17:24 5 °C 0.7 °C 1013.4 hPa WNW 10 km/h 22.5 km/h 74% 0 mm 0 W/m2
17:29 4.9 °C 0.7 °C 1013.4 hPa WNW 7.4 km/h 22.5 km/h 74% 0 mm 0 W/m2
17:34 4.9 °C 0.8 °C 1013.4 hPa WNW 14.3 km/h 22.5 km/h 74.8% 0 mm 0 W/m2
17:39 4.8 °C 0.8 °C 1013.4 hPa WNW 6.9 km/h 22.5 km/h 75% 0 mm 0 W/m2
17:44 4.8 °C 0.7 °C 1013.8 hPa WNW 3.5 km/h 22.5 km/h 75% 0 mm 0 W/m2
17:49 4.7 °C 0.6 °C 1014.1 hPa NW 2.6 km/h 22.5 km/h 75% 0 mm 0 W/m2
17:54 4.6 °C 0.7 °C 1014.1 hPa WNW 4 km/h 22.5 km/h 76% 0 mm 0 W/m2
17:59 4.5 °C 0.7 °C 1014.1 hPa WNW 3.1 km/h 22.5 km/h 76% 0 mm 0 W/m2
18:04 4.4 °C 0.6 °C 1014.4 hPa WNW 1.9 km/h 22.5 km/h 76% 0 mm 0 W/m2
18:09 4.4 °C 0.6 °C 1014.4 hPa NNW 0.6 km/h 9.7 km/h 76% 0 mm 0 W/m2
18:14 4.3 °C 0.5 °C 1014.4 hPa Calm   9.7 km/h 76% 0 mm 0 W/m2
18:19 4.3 °C 0.4 °C 1014.4 hPa NNW 0.2 km/h 9.7 km/h 76% 0 mm 0 W/m2
18:24 4.2 °C 0.6 °C 1014.8 hPa NNW 1.1 km/h 9.7 km/h 77% 0 mm 0 W/m2
18:29 4.1 °C 0.4 °C 1014.8 hPa NNW 2.3 km/h 9.7 km/h 77% 0 mm 0 W/m2
18:34 4.1 °C 0.5 °C 1015.1 hPa NNW 0.6 km/h 9.7 km/h 77.6% 0 mm 0 W/m2
18:39 4 °C 0.5 °C 1015.1 hPa NW 1.6 km/h 11.3 km/h 78% 0 mm 0 W/m2
18:44 3.9 °C 0.5 °C 1015.1 hPa NW 0.8 km/h 11.3 km/h 78% 0 mm 0 W/m2
18:49 3.9 °C 0.4 °C 1015.1 hPa NW 0.2 km/h 11.3 km/h 78% 0 mm 0 W/m2
18:54 3.8 °C 0.4 °C 1015.5 hPa Calm   11.3 km/h 78% 0 mm 0 W/m2
18:59 3.8 °C 0.3 °C 1015.5 hPa NW 0.3 km/h 11.3 km/h 78% 0 mm 0 W/m2
19:04 3.7 °C 0.4 °C 1015.5 hPa NW 0.8 km/h 11.3 km/h 78.7% 0 mm 0 W/m2
19:09 3.7 °C 0.3 °C 1015.5 hPa NW 0.2 km/h 4.8 km/h 79% 0 mm 0 W/m2
19:14 3.6 °C 0.3 °C 1015.5 hPa NW 0.5 km/h 4.8 km/h 79% 0 mm 0 W/m2
19:19 3.5 °C 0.2 °C 1015.8 hPa Calm   4.8 km/h 79% 0 mm 0 W/m2
19:24 3.4 °C 0.2 °C 1015.8 hPa Calm   4.8 km/h 79.6% 0 mm 0 W/m2
19:29 3.3 °C 0.2 °C 1015.8 hPa Calm   4.8 km/h 80% 0 mm 0 W/m2
19:34 3.2 °C 0.1 °C 1016.1 hPa Calm   4.8 km/h 80% 0 mm 0 W/m2
19:39 3.1 °C 0.1 °C 1016.1 hPa Calm     80.5% 0 mm 0 W/m2
19:44 3.1 °C 0.1 °C 1016.1 hPa Calm     81% 0 mm 0 W/m2
19:49 3 °C 0.1 °C 1016.5 hPa Calm     81% 0 mm 0 W/m2
19:54 2.9 °C 0 °C 1016.1 hPa NW 0.6 km/h 3.2 km/h 81% 0 mm 0 W/m2
19:59 2.8 °C -0.1 °C 1016.1 hPa NW 0.3 km/h 4.8 km/h 81% 0 mm 0 W/m2
20:00 2.8 °C -0.1 °C 1016.1 hPa Calm   4.8 km/h 81% 0 mm 0 W/m2
20:09 2.8 °C 0 °C 1016.5 hPa Calm     82% 0 mm 0 W/m2
20:14 2.7 °C 0 °C 1016.5 hPa NW 0.6 km/h 6.4 km/h 82% 0 mm 0 W/m2
20:19 2.7 °C -0.1 °C 1016.5 hPa NW 0.6 km/h 6.4 km/h 82% 0 mm 0 W/m2
20:24 2.6 °C -0.1 °C 1016.5 hPa NW 1.1 km/h 6.4 km/h 82.1% 0 mm 0 W/m2
20:29 2.6 °C 0 °C 1016.5 hPa NW 0.5 km/h 6.4 km/h 83% 0 mm 0 W/m2
20:34 2.6 °C -0.1 °C 1016.5 hPa NW 2.3 km/h 9.7 km/h 83% 0 mm 0 W/m2
20:39 2.5 °C -0.1 °C 1016.5 hPa NW 1.4 km/h 9.7 km/h 83% 0 mm 0 W/m2
20:44 2.5 °C -0.1 °C 1016.5 hPa Calm   9.7 km/h 83% 0 mm 0 W/m2
20:49 2.4 °C -0.2 °C 1016.5 hPa NW 2.4 km/h 9.7 km/h 83% 0 mm 0 W/m2
20:54 2.4 °C -0.2 °C 1016.5 hPa NW 2.1 km/h 9.7 km/h 83% 0 mm 0 W/m2
20:59 2.4 °C -0.2 °C 1016.5 hPa NW 1.3 km/h 9.7 km/h 83% 0 mm 0 W/m2
21:04 2.4 °C -0.2 °C 1016.8 hPa Calm   9.7 km/h 83% 0 mm 0 W/m2
21:09 2.4 °C -0.2 °C 1016.8 hPa NW 0.6 km/h 4.8 km/h 83% 0 mm 0 W/m2
21:14 2.4 °C -0.2 °C 1016.8 hPa Calm   4.8 km/h 83% 0 mm 0 W/m2
21:19 2.3 °C -0.3 °C 1016.8 hPa Calm   4.8 km/h 83% 0 mm 0 W/m2
21:24 2.2 °C -0.3 °C 1017.2 hPa Calm   4.8 km/h 83% 0 mm 0 W/m2
21:29 2.2 °C -0.4 °C 1017.2 hPa Calm   4.8 km/h 83.1% 0 mm 0 W/m2
21:34 2.1 °C -0.3 °C 1017.2 hPa NW 0.8 km/h 6.4 km/h 84% 0 mm 0 W/m2
21:39 2 °C -0.4 °C 1017.2 hPa NW 1.1 km/h 6.4 km/h 84% 0 mm 0 W/m2
21:44 1.9 °C -0.5 °C 1017.2 hPa NW 0.6 km/h 6.4 km/h 84% 0 mm 0 W/m2
21:49 1.8 °C -0.6 °C 1017.2 hPa NW 2.3 km/h 6.4 km/h 84% 0 mm 0 W/m2
21:54 1.8 °C -0.5 °C 1017.2 hPa NW 3.7 km/h 9.7 km/h 84.6% 0 mm 0 W/m2
21:59 1.8 °C -0.5 °C 1017.5 hPa NW 5.3 km/h 11.3 km/h 85% 0 mm 0 W/m2
22:04 1.7 °C -0.5 °C 1017.5 hPa WNW 3.5 km/h 11.3 km/h 85% 0 mm 0 W/m2
22:09 1.7 °C -0.5 °C 1017.5 hPa WNW 0.2 km/h 8 km/h 85% 0 mm 0 W/m2
22:14 1.7 °C -0.5 °C 1017.8 hPa Calm   8 km/h 85% 0 mm 0 W/m2
22:19 1.7 °C -0.5 °C 1017.8 hPa Calm   8 km/h 85% 0 mm 0 W/m2
22:24 1.7 °C -0.6 °C 1017.5 hPa Calm   8 km/h 85% 0 mm 0 W/m2
22:29 1.6 °C -0.7 °C 1017.8 hPa Calm   8 km/h 85% 0 mm 0 W/m2
22:34 1.5 °C -0.7 °C 1017.8 hPa Calm   8 km/h 85% 0 mm 0 W/m2
22:39 1.4 °C -0.8 °C 1017.8 hPa Calm     85% 0 mm 0 W/m2
22:44 1.4 °C -0.8 °C 1017.8 hPa Calm     85.3% 0 mm 0 W/m2
22:49 1.3 °C -0.8 °C 1017.8 hPa WNW 0.5 km/h 8 km/h 86% 0 mm 0 W/m2
22:54 1.3 °C -0.8 °C 1017.8 hPa WNW 1.3 km/h 8 km/h 86% 0 mm 0 W/m2
22:59 1.2 °C -0.8 °C 1017.8 hPa WNW 0.5 km/h 8 km/h 86% 0 mm 0 W/m2
23:04 1.2 °C -0.8 °C 1018.2 hPa WNW 0.8 km/h 8 km/h 86.5% 0 mm 0 W/m2
23:09 1.2 °C -0.7 °C 1018.5 hPa Calm     87% 0 mm 0 W/m2
23:14 1.1 °C -0.8 °C 1018.5 hPa Calm     87% 0 mm 0 W/m2
23:19 1.1 °C -0.9 °C 1018.5 hPa Calm     86.4% 0 mm 0 W/m2
23:24 1 °C -0.9 °C 1018.5 hPa WNW 0.5 km/h 4.8 km/h 87.2% 0 mm 0 W/m2
23:29 0.9 °C -1.1 °C 1018.2 hPa WNW 0.2 km/h 4.8 km/h 86.5% 0 mm 0 W/m2
23:34 0.8 °C -1.1 °C 1018.5 hPa Calm   4.8 km/h 87% 0 mm 0 W/m2
23:39 0.8 °C -1.1 °C 1018.5 hPa WNW 0.2 km/h 4.8 km/h 87% 0 mm 0 W/m2
23:44 0.8 °C -1.1 °C 1018.5 hPa WNW 0.6 km/h 4.8 km/h 87% 0 mm 0 W/m2
23:49 0.8 °C -1 °C 1018.5 hPa Calm   4.8 km/h 87.9% 0 mm 0 W/m2
23:54 0.8 °C -1 °C 1018.2 hPa WNW 0.6 km/h 6.4 km/h 88% 0 mm 0 W/m2
23:59 0.8 °C -1 °C 1018.2 hPa Calm   6.4 km/h 88% 0 mm 0 W/m2
Hartford County Weather
Compliments of Weather Underground - 2 mb